createdAt,value
2018-12-02T00:00:31.480Z,3.00
2018-12-02T00:03:00.351Z,3.00
2018-12-02T00:05:28.629Z,3.00
2018-12-02T00:07:56.691Z,3.00
2018-12-02T00:10:25.289Z,3.00
2018-12-02T00:12:53.384Z,3.00
2018-12-02T00:15:24.194Z,3.00
2018-12-02T00:17:53.572Z,3.00
2018-12-02T00:20:21.716Z,3.10
2018-12-02T00:22:50.596Z,3.10
2018-12-02T00:25:18.061Z,3.00
2018-12-02T00:27:51.411Z,3.10
2018-12-02T00:30:22.555Z,3.10
2018-12-02T00:32:50.584Z,3.10
2018-12-02T00:35:18.957Z,3.10
2018-12-02T00:37:48.997Z,3.10
2018-12-02T00:40:19.874Z,3.10
2018-12-02T00:42:53.056Z,3.00
2018-12-02T00:45:22.457Z,3.00
2018-12-02T00:47:50.538Z,3.00
2018-12-02T00:50:19.031Z,3.00
2018-12-02T00:52:48.234Z,3.10
2018-12-02T00:55:28.412Z,3.00
2018-12-02T00:57:56.524Z,3.00
2018-12-02T01:00:24.566Z,3.00
2018-12-02T01:02:52.647Z,2.90
2018-12-02T01:05:21.586Z,3.00
2018-12-02T01:07:49.657Z,3.00
2018-12-02T01:10:19.674Z,3.00
2018-12-02T01:12:48.687Z,3.00
2018-12-02T01:15:17.981Z,3.00
2018-12-02T01:17:45.998Z,3.10
2018-12-02T01:20:15.837Z,3.00
2018-12-02T01:22:43.932Z,3.10
2018-12-02T01:25:13.050Z,3.10
2018-12-02T01:27:42.460Z,3.10
2018-12-02T01:30:16.831Z,3.10
2018-12-02T01:32:44.927Z,3.10
2018-12-02T01:35:13.693Z,3.10
2018-12-02T01:37:41.766Z,3.10
2018-12-02T01:40:11.878Z,3.10
2018-12-02T01:42:40.002Z,3.10
2018-12-02T01:45:12.244Z,3.20
2018-12-02T01:47:40.282Z,3.10
2018-12-02T01:50:10.155Z,3.20
2018-12-02T01:52:38.253Z,3.20
2018-12-02T01:55:06.639Z,3.10
2018-12-02T01:57:34.778Z,3.10
2018-12-02T02:00:04.655Z,3.20
2018-12-02T02:02:32.690Z,3.10
2018-12-02T02:05:00.768Z,3.20
2018-12-02T02:07:28.874Z,3.20
2018-12-02T02:09:56.914Z,3.20
2018-12-02T02:12:24.995Z,3.20
2018-12-02T02:14:53.051Z,3.10
2018-12-02T02:17:21.147Z,3.10
2018-12-02T02:19:49.219Z,3.10
2018-12-02T02:22:17.277Z,3.20
2018-12-02T02:24:45.418Z,3.10
2018-12-02T02:27:13.511Z,3.10
2018-12-02T02:29:41.583Z,3.10
2018-12-02T02:32:09.674Z,3.10
2018-12-02T02:34:37.746Z,3.20
2018-12-02T02:37:05.821Z,3.20
2018-12-02T02:39:33.898Z,3.20
2018-12-02T02:42:01.946Z,3.20
2018-12-02T02:44:30.119Z,3.20
2018-12-02T02:46:58.168Z,3.20
2018-12-02T02:49:26.269Z,3.20
2018-12-02T02:51:54.358Z,3.20
2018-12-02T02:54:22.440Z,3.20
2018-12-02T02:56:50.521Z,3.30
2018-12-02T02:59:18.562Z,3.30
2018-12-02T03:01:46.631Z,3.30
2018-12-02T03:04:14.709Z,3.30
2018-12-02T03:06:42.790Z,3.40
2018-12-02T03:09:10.867Z,3.40
2018-12-02T03:11:38.922Z,3.40
2018-12-02T03:14:06.997Z,3.40
2018-12-02T03:16:35.097Z,3.40
2018-12-02T03:19:03.212Z,3.50
2018-12-02T03:21:31.330Z,3.50
2018-12-02T03:23:59.397Z,3.50
2018-12-02T03:26:27.475Z,3.60
2018-12-02T03:28:55.584Z,3.50
2018-12-02T03:31:23.686Z,3.50
2018-12-02T03:33:51.764Z,3.50
2018-12-02T03:36:19.850Z,3.50
2018-12-02T03:38:47.910Z,3.50
2018-12-02T03:41:15.988Z,3.50
2018-12-02T03:43:44.051Z,3.50
2018-12-02T03:46:12.147Z,3.50
2018-12-02T03:48:40.187Z,3.50
2018-12-02T03:51:08.287Z,3.60
2018-12-02T03:53:36.327Z,3.60
2018-12-02T03:56:04.502Z,3.70
2018-12-02T03:58:32.579Z,3.70
2018-12-02T04:01:00.709Z,3.70
2018-12-02T04:03:29.262Z,3.70
2018-12-02T04:05:57.334Z,3.70
2018-12-02T04:08:25.390Z,3.70
2018-12-02T04:10:54.073Z,3.70
2018-12-02T04:13:22.155Z,3.70
2018-12-02T04:15:50.226Z,3.70
2018-12-02T04:18:18.290Z,3.70
2018-12-02T04:20:46.383Z,3.80
2018-12-02T04:23:15.459Z,3.80
2018-12-02T04:25:43.539Z,3.80
2018-12-02T04:28:11.610Z,3.80
2018-12-02T04:30:39.673Z,3.80
2018-12-02T04:33:07.802Z,3.80
2018-12-02T04:35:35.886Z,3.80
2018-12-02T04:38:03.966Z,3.80
2018-12-02T04:40:32.104Z,3.80
2018-12-02T04:43:00.153Z,3.80
2018-12-02T04:45:28.296Z,3.90
2018-12-02T04:47:56.439Z,3.90
2018-12-02T04:50:24.958Z,3.90
2018-12-02T04:52:53.196Z,3.90
2018-12-02T04:55:21.243Z,3.90
2018-12-02T04:57:49.314Z,3.80
2018-12-02T05:00:18.326Z,3.80
2018-12-02T05:02:47.523Z,3.80
2018-12-02T05:05:17.746Z,3.80
2018-12-02T05:07:45.789Z,3.70
2018-12-02T05:10:15.771Z,3.70
2018-12-02T05:12:43.916Z,3.70
2018-12-02T05:15:13.669Z,3.70
2018-12-02T05:17:41.775Z,3.60
2018-12-02T05:20:11.702Z,3.60
2018-12-02T05:22:39.793Z,3.70
2018-12-02T05:25:09.174Z,3.70
2018-12-02T05:27:37.259Z,3.70
2018-12-02T05:30:09.434Z,3.70
2018-12-02T05:32:37.463Z,3.70
2018-12-02T05:35:05.689Z,3.70
2018-12-02T05:37:33.721Z,3.70
2018-12-02T05:40:01.810Z,3.70
2018-12-02T05:42:32.221Z,3.80
2018-12-02T05:45:00.861Z,3.80
2018-12-02T05:47:28.987Z,3.80
2018-12-02T05:49:57.070Z,3.80
2018-12-02T05:52:25.127Z,3.90
2018-12-02T05:54:53.236Z,3.90
2018-12-02T05:57:21.369Z,4.00
2018-12-02T05:59:49.429Z,4.00
2018-12-02T06:02:17.761Z,4.00
2018-12-02T06:04:45.693Z,4.10
2018-12-02T06:07:13.735Z,4.00
2018-12-02T06:09:41.842Z,4.10
2018-12-02T06:12:09.932Z,4.10
2018-12-02T06:14:37.977Z,4.10
2018-12-02T06:17:06.460Z,4.10
2018-12-02T06:19:34.592Z,4.20
2018-12-02T06:22:02.703Z,4.20
2018-12-02T06:24:30.803Z,4.10
2018-12-02T06:26:58.853Z,4.20
2018-12-02T06:29:27.066Z,4.20
2018-12-02T06:31:55.159Z,4.20
2018-12-02T06:34:23.268Z,4.20
2018-12-02T06:36:51.364Z,4.30
2018-12-02T06:39:19.455Z,4.30
2018-12-02T06:41:47.483Z,4.30
2018-12-02T06:44:15.553Z,4.30
2018-12-02T06:46:43.638Z,4.30
2018-12-02T06:49:11.741Z,4.30
2018-12-02T06:51:39.779Z,4.30
2018-12-02T06:54:07.881Z,4.30
2018-12-02T06:56:36.279Z,4.40
2018-12-02T06:59:16.736Z,4.30
2018-12-02T07:01:47.873Z,4.40
2018-12-02T07:04:27.622Z,4.40
2018-12-02T07:06:55.908Z,4.40
2018-12-02T07:09:23.923Z,4.40
2018-12-02T07:11:52.018Z,4.50
2018-12-02T07:14:20.074Z,4.50
2018-12-02T07:16:48.165Z,4.50
2018-12-02T07:19:18.214Z,4.60
2018-12-02T07:21:48.505Z,4.60
2018-12-02T07:24:16.542Z,4.70
2018-12-02T07:26:44.629Z,4.70
2018-12-02T07:29:12.705Z,4.70
2018-12-02T07:31:40.781Z,4.80
2018-12-02T07:34:08.838Z,4.80
2018-12-02T07:36:36.934Z,4.80
2018-12-02T07:41:16.464Z,4.90
2018-12-02T07:43:44.530Z,4.90
2018-12-02T07:46:12.605Z,4.90
2018-12-02T07:48:41.783Z,4.90
2018-12-02T07:51:09.888Z,5.00
2018-12-02T07:53:37.962Z,4.90
2018-12-02T07:56:06.040Z,4.90
2018-12-02T07:58:34.099Z,4.90
2018-12-02T08:01:02.180Z,4.90
2018-12-02T08:03:30.255Z,4.90
2018-12-02T08:05:58.318Z,4.90
2018-12-02T08:08:26.389Z,4.90
2018-12-02T08:10:54.507Z,5.00
2018-12-02T08:13:22.533Z,5.00
2018-12-02T08:15:50.625Z,5.00
2018-12-02T08:18:18.730Z,5.00
2018-12-02T08:20:46.862Z,4.90
2018-12-02T08:23:14.933Z,4.90
2018-12-02T08:25:42.994Z,4.90
2018-12-02T08:28:11.076Z,5.00
2018-12-02T08:30:39.141Z,4.90
2018-12-02T08:33:07.256Z,5.00
2018-12-02T08:35:35.410Z,5.00
2018-12-02T08:38:06.513Z,5.00
2018-12-02T08:40:34.607Z,5.10
2018-12-02T08:43:02.773Z,5.10
2018-12-02T08:45:30.886Z,5.20
2018-12-02T08:47:58.959Z,5.20
2018-12-02T08:50:27.005Z,5.20
2018-12-02T08:52:55.103Z,5.30
2018-12-02T08:55:23.278Z,5.20
2018-12-02T08:57:52.590Z,5.20
2018-12-02T09:00:21.492Z,5.30
2018-12-02T09:02:57.634Z,5.40
2018-12-02T09:05:25.752Z,5.40
2018-12-02T09:07:55.228Z,5.40
2018-12-02T09:10:24.286Z,5.50
2018-12-02T09:12:53.814Z,5.50
2018-12-02T09:15:21.899Z,5.60
2018-12-02T09:17:49.928Z,5.60
2018-12-02T09:20:23.577Z,5.70
2018-12-02T09:22:51.296Z,5.80
2018-12-02T09:25:19.402Z,5.90
2018-12-02T09:27:47.520Z,6.00
2018-12-02T09:30:18.622Z,6.00
2018-12-02T09:32:46.771Z,6.00
2018-12-02T09:35:14.918Z,6.00
2018-12-02T09:37:42.984Z,6.00
2018-12-02T09:40:12.934Z,6.00
2018-12-02T09:42:42.265Z,6.10
2018-12-02T09:45:11.666Z,6.10
2018-12-02T09:47:39.773Z,6.20
2018-12-02T09:50:10.982Z,6.20
2018-12-02T09:52:39.039Z,6.20
2018-12-02T09:55:09.262Z,6.20
2018-12-02T09:57:37.335Z,6.30
2018-12-02T10:00:10.188Z,6.30
2018-12-02T10:02:38.301Z,6.20
2018-12-02T10:05:06.403Z,6.20
2018-12-02T10:07:34.561Z,6.30
2018-12-02T10:10:02.593Z,6.30
2018-12-02T10:12:30.667Z,6.30
2018-12-02T10:14:59.236Z,6.30
2018-12-02T10:17:27.479Z,6.40
2018-12-02T10:19:55.480Z,6.40
2018-12-02T10:22:23.617Z,6.40
2018-12-02T10:24:51.658Z,6.40
2018-12-02T10:27:19.764Z,6.40
2018-12-02T10:29:47.845Z,6.50
2018-12-02T10:32:16.004Z,6.60
2018-12-02T10:34:44.062Z,6.70
2018-12-02T10:37:12.105Z,6.70
2018-12-02T10:39:40.271Z,6.80
2018-12-02T10:42:08.422Z,6.80
2018-12-02T10:44:36.579Z,6.90
2018-12-02T10:47:05.279Z,6.90
2018-12-02T10:49:33.739Z,7.00
2018-12-02T10:52:01.807Z,7.10
2018-12-02T10:54:29.970Z,7.20
2018-12-02T10:56:58.037Z,7.30
2018-12-02T10:59:26.211Z,7.30
2018-12-02T11:01:58.562Z,7.20
2018-12-02T11:04:26.641Z,7.20
2018-12-02T11:06:54.684Z,7.20
2018-12-02T11:09:22.871Z,7.20
2018-12-02T11:11:50.957Z,7.20
2018-12-02T11:14:19.141Z,7.20
2018-12-02T11:16:47.222Z,7.20
2018-12-02T11:19:15.304Z,7.20
2018-12-02T11:21:43.396Z,7.20
2018-12-02T11:24:11.546Z,7.20
2018-12-02T11:26:39.643Z,7.20
2018-12-02T11:29:07.719Z,7.20
2018-12-02T11:31:35.901Z,7.20
2018-12-02T11:34:04.010Z,7.20
2018-12-02T11:36:32.188Z,7.20
2018-12-02T11:39:00.302Z,7.20
2018-12-02T11:41:28.347Z,7.20
2018-12-02T11:43:56.432Z,7.20
2018-12-02T11:46:24.494Z,7.20
2018-12-02T11:48:52.966Z,7.20
2018-12-02T11:51:21.083Z,7.20
2018-12-02T11:53:49.302Z,7.10
2018-12-02T11:56:17.387Z,7.00
2018-12-02T11:58:45.633Z,7.10
2018-12-02T12:01:13.776Z,7.00
2018-12-02T12:03:41.835Z,7.10
2018-12-02T12:06:09.910Z,7.00
2018-12-02T12:08:37.956Z,7.00
2018-12-02T12:11:06.092Z,6.90
2018-12-02T12:13:34.348Z,6.80
2018-12-02T12:16:02.387Z,6.80
2018-12-02T12:18:30.474Z,6.80
2018-12-02T12:20:58.531Z,6.80
2018-12-02T12:23:26.652Z,6.90
2018-12-02T12:25:54.739Z,6.90
2018-12-02T12:28:22.844Z,6.80
2018-12-02T12:30:50.955Z,6.90
2018-12-02T12:33:19.086Z,6.90
2018-12-02T12:35:48.852Z,6.90
2018-12-02T12:38:17.034Z,6.90
2018-12-02T12:40:47.012Z,6.80
2018-12-02T12:43:18.439Z,6.80
2018-12-02T12:45:46.750Z,6.80
2018-12-02T12:48:14.803Z,6.90
2018-12-02T12:50:43.010Z,6.80
2018-12-02T12:53:11.187Z,6.70
2018-12-02T12:55:39.389Z,6.70
2018-12-02T12:58:08.488Z,6.70
2018-12-02T13:00:36.609Z,6.60
2018-12-02T13:03:04.889Z,6.60
2018-12-02T13:05:32.953Z,6.50
2018-12-02T13:08:00.999Z,6.60
2018-12-02T13:10:29.129Z,6.60
2018-12-02T13:12:57.293Z,6.50
2018-12-02T13:15:25.570Z,6.50
2018-12-02T13:17:55.060Z,6.50
2018-12-02T13:20:24.263Z,6.50
2018-12-02T13:22:52.311Z,6.40
2018-12-02T13:25:20.420Z,6.50
2018-12-02T13:27:48.480Z,6.40
2018-12-02T13:30:17.762Z,6.40
2018-12-02T13:32:48.011Z,6.40
2018-12-02T13:35:16.066Z,6.40
2018-12-02T13:37:44.141Z,6.30
2018-12-02T13:40:16.029Z,6.30
2018-12-02T13:42:47.396Z,6.20
2018-12-02T13:45:17.097Z,6.20
2018-12-02T13:47:45.225Z,6.20
2018-12-02T13:50:15.455Z,6.20
2018-12-02T13:52:43.584Z,6.20
2018-12-02T13:55:20.066Z,6.20
2018-12-02T13:57:48.357Z,6.20
2018-12-02T14:00:19.722Z,6.10
2018-12-02T14:02:49.266Z,6.10
2018-12-02T14:05:17.393Z,6.10
2018-12-02T14:07:45.599Z,6.10
2018-12-02T14:10:14.467Z,6.00
2018-12-02T14:12:45.902Z,6.00
2018-12-02T14:15:16.917Z,6.00
2018-12-02T14:17:46.579Z,6.00
2018-12-02T14:20:14.898Z,6.00
2018-12-02T14:22:43.195Z,6.00
2018-12-02T14:25:13.425Z,5.90
2018-12-02T14:27:43.143Z,5.90
2018-12-02T14:30:16.306Z,5.90
2018-12-02T14:35:30.113Z,5.80
2018-12-02T14:37:58.173Z,5.80
2018-12-02T14:40:26.260Z,5.80
2018-12-02T14:42:54.357Z,5.70
2018-12-02T14:45:22.588Z,5.70
2018-12-02T14:47:50.677Z,5.70
2018-12-02T14:50:19.762Z,5.70
2018-12-02T14:52:48.421Z,5.70
2018-12-02T14:55:18.012Z,5.70
2018-12-02T14:57:46.167Z,5.60
2018-12-02T15:00:15.439Z,5.70
2018-12-02T15:02:43.515Z,5.60
2018-12-02T15:05:12.472Z,5.70
2018-12-02T15:07:41.130Z,5.60
2018-12-02T15:10:11.706Z,5.60
2018-12-02T15:12:39.812Z,5.60
2018-12-02T15:15:12.087Z,5.60
2018-12-02T15:17:40.136Z,5.60
2018-12-02T15:20:12.050Z,5.60
2018-12-02T15:22:40.203Z,5.60
2018-12-02T15:25:13.342Z,5.60
2018-12-02T15:27:41.855Z,5.60
2018-12-02T15:30:12.951Z,5.60
2018-12-02T15:32:41.875Z,5.60
2018-12-02T15:35:10.808Z,5.50
2018-12-02T15:37:38.928Z,5.50
2018-12-02T15:40:08.923Z,5.60
2018-12-02T15:42:38.384Z,5.60
2018-12-02T15:45:13.303Z,5.60
2018-12-02T15:47:40.167Z,5.50
2018-12-02T15:50:22.038Z,5.50
2018-12-02T15:52:50.377Z,5.50
2018-12-02T15:55:21.087Z,5.60
2018-12-02T15:57:49.098Z,5.50
2018-12-02T16:00:22.518Z,5.60
2018-12-02T16:02:50.679Z,5.50
2018-12-02T16:05:18.771Z,5.60
2018-12-02T16:07:46.857Z,5.50
2018-12-02T16:10:14.947Z,5.60
2018-12-02T16:12:45.330Z,5.60
2018-12-02T16:15:15.472Z,5.50
2018-12-02T16:17:44.168Z,5.60
2018-12-02T16:20:15.561Z,5.60
2018-12-02T16:22:43.750Z,5.60
2018-12-02T16:25:12.843Z,5.70
2018-12-02T16:27:40.930Z,5.70
2018-12-02T16:30:15.153Z,5.80
2018-12-02T16:32:44.617Z,5.70
2018-12-02T16:35:13.975Z,5.80
2018-12-02T16:37:42.269Z,5.80
2018-12-02T16:40:14.183Z,5.90
2018-12-02T16:42:42.252Z,5.90
2018-12-02T16:47:29.752Z,5.90
2018-12-02T16:49:57.899Z,6.00
2018-12-02T16:53:08.515Z,6.00
2018-12-02T16:55:38.704Z,6.00
2018-12-02T16:58:10.193Z,6.10
2018-12-02T17:00:43.648Z,6.10
2018-12-02T17:03:11.678Z,6.10
2018-12-02T17:05:40.799Z,6.10
2018-12-02T17:08:08.850Z,6.10
2018-12-02T17:10:36.956Z,6.20
2018-12-02T17:13:07.174Z,6.10
2018-12-02T17:15:35.391Z,6.10
2018-12-02T17:18:03.502Z,6.20
2018-12-02T17:20:31.592Z,6.20
2018-12-02T17:22:59.735Z,6.20
2018-12-02T17:25:27.808Z,6.30
2018-12-02T17:27:55.888Z,6.30
2018-12-02T17:30:39.820Z,6.30
2018-12-02T17:33:08.089Z,6.30
2018-12-02T17:35:36.191Z,6.30
2018-12-02T17:38:04.290Z,6.30
2018-12-02T17:40:32.357Z,6.40
2018-12-02T17:43:00.412Z,6.40
2018-12-02T17:45:28.491Z,6.40
2018-12-02T17:47:56.554Z,6.40
2018-12-02T17:50:24.613Z,6.40
2018-12-02T17:52:52.674Z,6.40
2018-12-02T17:55:20.826Z,6.50
2018-12-02T17:57:48.973Z,6.50
2018-12-02T18:00:24.445Z,6.50
2018-12-02T18:02:53.718Z,6.50
2018-12-02T18:05:26.490Z,6.50
2018-12-02T18:07:54.576Z,6.60
2018-12-02T18:10:22.688Z,6.60
2018-12-02T18:12:51.028Z,6.60
2018-12-02T18:15:19.149Z,6.60
2018-12-02T18:17:47.259Z,6.70
2018-12-02T18:20:16.490Z,6.70
2018-12-02T18:22:45.768Z,6.70
2018-12-02T18:25:15.784Z,6.70
2018-12-02T18:27:44.814Z,6.80
2018-12-02T18:30:17.171Z,6.80
2018-12-02T18:32:45.390Z,6.80
2018-12-02T18:35:19.050Z,6.80
2018-12-02T18:37:47.189Z,6.80
2018-12-02T18:40:16.303Z,6.90
2018-12-02T18:42:44.408Z,6.90
2018-12-02T18:45:12.649Z,6.90
2018-12-02T18:47:40.680Z,7.00
2018-12-02T18:50:11.373Z,7.00
2018-12-02T18:52:39.527Z,7.10
2018-12-02T18:55:10.565Z,7.10
2018-12-02T18:57:38.955Z,7.10
2018-12-02T19:00:15.179Z,7.10
2018-12-02T19:02:43.627Z,7.20
2018-12-02T19:05:11.775Z,7.20
2018-12-02T19:07:39.808Z,7.30
2018-12-02T19:10:11.911Z,7.30
2018-12-02T19:12:39.936Z,7.40
2018-12-02T19:15:10.349Z,7.50
2018-12-02T19:17:38.488Z,7.50
2018-12-02T19:20:11.370Z,7.60
2018-12-02T19:22:39.424Z,7.80
2018-12-02T19:25:09.817Z,7.80
2018-12-02T19:27:37.943Z,7.90
2018-12-02T19:30:13.319Z,7.90
2018-12-02T19:32:42.594Z,8.00
2018-12-02T19:35:12.298Z,8.00
2018-12-02T19:37:40.528Z,8.00
2018-12-02T19:40:13.293Z,8.10
2018-12-02T19:42:41.784Z,8.10
2018-12-02T19:45:13.374Z,8.10
2018-12-02T19:47:42.570Z,8.20
2018-12-02T19:50:12.165Z,8.30
2018-12-02T19:52:40.296Z,8.30
2018-12-02T19:55:09.760Z,8.30
2018-12-02T19:57:37.849Z,8.40
2018-12-02T20:00:13.972Z,8.40
2018-12-02T20:02:43.317Z,8.40
2018-12-02T20:05:11.427Z,8.50
2018-12-02T20:07:39.647Z,8.60
2018-12-02T20:10:14.269Z,8.70
2018-12-02T20:12:42.474Z,8.70
2018-12-02T20:15:12.111Z,8.80
2018-12-02T20:17:40.247Z,8.80
2018-12-02T20:20:15.987Z,8.90
2018-12-02T20:22:44.137Z,9.00
2018-12-02T20:25:12.213Z,9.00
2018-12-02T20:27:40.274Z,9.00
2018-12-02T20:30:11.569Z,9.10
2018-12-02T20:32:43.658Z,9.10
2018-12-02T20:35:23.526Z,9.10
2018-12-02T20:37:57.584Z,9.10
2018-12-02T20:40:26.058Z,9.10
2018-12-02T20:42:54.110Z,9.20
2018-12-02T20:45:22.218Z,9.20
2018-12-02T20:47:50.380Z,9.30
2018-12-02T20:50:19.187Z,9.30
2018-12-02T20:52:48.057Z,9.30
2018-12-02T20:55:22.010Z,9.30
2018-12-02T20:57:51.583Z,9.30
2018-12-02T21:00:19.845Z,9.30
2018-12-02T21:03:13.644Z,9.30
2018-12-02T21:05:49.043Z,9.40
2018-12-02T21:08:17.161Z,9.40
2018-12-02T21:10:46.222Z,9.40
2018-12-02T21:13:14.303Z,9.40
2018-12-02T21:15:42.672Z,9.40
2018-12-02T21:18:10.720Z,9.40
2018-12-02T21:20:38.830Z,9.50
2018-12-02T21:23:06.962Z,9.50
2018-12-02T21:25:35.153Z,9.50
2018-12-02T21:28:03.306Z,9.50
2018-12-02T21:30:31.414Z,9.50
2018-12-02T21:32:59.523Z,9.50
2018-12-02T21:35:27.681Z,9.60
2018-12-02T21:37:56.253Z,9.60
2018-12-02T21:40:24.301Z,9.60
2018-12-02T21:42:52.376Z,9.60
2018-12-02T21:45:20.526Z,9.60
2018-12-02T21:47:49.977Z,9.60
2018-12-02T21:50:20.557Z,9.70
2018-12-02T21:52:48.783Z,9.70
2018-12-02T21:57:54.163Z,9.70
2018-12-02T22:00:27.780Z,9.70
2018-12-02T22:02:55.812Z,9.60
2018-12-02T22:05:23.918Z,9.60
2018-12-02T22:07:52.211Z,9.60
2018-12-02T22:10:25.716Z,9.60
2018-12-02T22:12:53.821Z,9.60
2018-12-02T22:15:21.914Z,9.70
2018-12-02T22:17:49.978Z,9.70
2018-12-02T22:20:18.039Z,9.70
2018-12-02T22:22:46.155Z,9.70
2018-12-02T22:25:19.098Z,9.70
2018-12-02T22:27:48.366Z,9.60
2018-12-02T22:30:18.570Z,9.50
2018-12-02T22:32:46.727Z,9.60
2018-12-02T22:35:15.529Z,9.60
2018-12-02T22:37:44.185Z,9.50
2018-12-02T22:40:16.355Z,9.50
2018-12-02T22:42:44.443Z,9.50
2018-12-02T22:45:13.841Z,9.50
2018-12-02T22:47:41.966Z,9.60
2018-12-02T22:50:11.356Z,9.50
2018-12-02T22:52:39.505Z,9.50
2018-12-02T22:55:09.704Z,9.50
2018-12-02T22:57:37.976Z,9.50
2018-12-02T23:00:17.114Z,9.50
2018-12-02T23:02:52.031Z,9.50
2018-12-02T23:05:20.130Z,9.50
2018-12-02T23:07:48.193Z,9.50
2018-12-02T23:10:16.230Z,9.50
2018-12-02T23:12:44.381Z,9.60
2018-12-02T23:15:12.477Z,9.50
2018-12-02T23:17:40.545Z,9.50
2018-12-02T23:20:11.813Z,9.50
2018-12-02T23:22:39.942Z,9.50
2018-12-02T23:25:13.852Z,9.50
2018-12-02T23:27:42.011Z,9.50
2018-12-02T23:30:13.291Z,9.40
2018-12-02T23:32:41.372Z,9.40
2018-12-02T23:35:09.594Z,9.40
2018-12-02T23:37:37.659Z,9.30
2018-12-02T23:40:09.834Z,9.40
2018-12-02T23:42:37.921Z,9.30
2018-12-02T23:45:08.646Z,9.30
2018-12-02T23:47:36.693Z,9.20
2018-12-02T23:50:07.347Z,9.20
2018-12-02T23:52:35.397Z,9.20
2018-12-02T23:55:03.500Z,9.10
2018-12-02T23:57:31.567Z,9.10
2018-12-02T23:59:59.634Z,9.10
